Time;durP1;ratioP1;P1;durP2;ratioP2;P2;SDS_P1;SDS_P2;PMS_P1;PMS_P2;Temp;Humidity;BMP_temperature;BMP_pressure;BME280_temperature;BME280_humidity;BME280_pressure;Samples;Min_cycle;Max_cycle;Signal;HPM_P1;HPM_P2
2022/01/01 00:02:14;;;;;;;18.73;14.48;;;10.20;99.90;;;;;;5014775;28;20395;-76
2022/01/01 00:04:42;;;;;;;18.92;12.30;;;10.30;99.90;;;;;;5029896;28;20032;-76
2022/01/01 00:07:11;;;;;;;18.23;12.45;;;10.30;99.90;;;;;;5015395;28;20025;-77
2022/01/01 00:09:38;;;;;;;14.63;11.60;;;10.30;99.90;;;;;;5013033;28;20029;-77
2022/01/01 00:12:05;;;;;;;13.55;10.80;;;10.30;99.90;;;;;;5011910;28;20030;-75
2022/01/01 00:14:30;;;;;;;16.15;10.85;;;10.30;99.90;;;;;;5022019;28;20026;-75
2022/01/01 00:16:56;;;;;;;14.55;10.30;;;10.30;99.90;;;;;;5030048;28;20026;-75
2022/01/01 00:19:22;;;;;;;15.70;10.10;;;10.30;99.90;;;;;;5013779;28;20029;-76
2022/01/01 00:21:47;;;;;;;10.48;9.32;;;10.30;99.90;;;;;;5031677;28;20450;-76
2022/01/01 00:24:13;;;;;;;12.73;9.60;;;10.20;99.90;;;;;;5031391;28;20029;-76
2022/01/01 00:26:38;;;;;;;13.32;8.82;;;10.20;99.90;;;;;;5032784;28;20026;-76
2022/01/01 00:29:04;;;;;;;11.38;8.82;;;10.30;99.90;;;;;;5009799;28;20068;-74
2022/01/01 00:31:30;;;;;;;12.65;8.82;;;10.30;99.90;;;;;;5021686;28;20507;-74
2022/01/01 00:33:57;;;;;;;11.23;8.65;;;10.30;99.90;;;;;;5026678;28;20040;-77
2022/01/01 00:36:22;;;;;;;12.85;8.52;;;10.30;99.90;;;;;;5030621;28;20072;-77
2022/01/01 00:38:48;;;;;;;11.75;8.45;;;10.30;99.90;;;;;;5028375;28;20030;-76
2022/01/01 00:41:13;;;;;;;13.05;8.75;;;10.30;99.90;;;;;;5031532;28;20038;-76
2022/01/01 00:43:40;;;;;;;9.57;8.10;;;10.30;99.90;;;;;;5029332;28;20025;-76
2022/01/01 00:46:05;;;;;;;11.98;7.70;;;10.30;99.90;;;;;;5014965;28;20483;-76
2022/01/01 00:48:31;;;;;;;13.07;8.25;;;10.20;99.90;;;;;;5004838;28;20059;-76
2022/01/01 00:50:57;;;;;;;13.07;8.05;;;10.30;99.90;;;;;;5028772;28;20022;-75
2022/01/01 00:53:23;;;;;;;10.85;8.38;;;10.30;99.90;;;;;;5031353;28;20498;-75
2022/01/01 00:55:48;;;;;;;10.15;8.45;;;10.30;99.90;;;;;;5024322;28;20038;-76
2022/01/01 00:58:14;;;;;;;11.60;8.48;;;10.30;99.90;;;;;;5026335;28;20113;-75
2022/01/01 01:00:39;;;;;;;10.45;7.43;;;10.20;99.90;;;;;;5016722;28;20506;-75
2022/01/01 01:03:13;;;;;;;11.40;8.63;;;10.20;99.90;;;;;;5003420;28;20037;-75
2022/01/01 01:05:39;;;;;;;12.00;8.07;;;10.20;99.90;;;;;;5003301;28;20025;-76
2022/01/01 01:08:09;;;;;;;10.73;8.32;;;10.20;99.90;;;;;;5009362;28;20045;-75
2022/01/01 01:10:36;;;;;;;11.25;8.05;;;10.20;99.90;;;;;;5021900;28;20068;-76
2022/01/01 01:13:02;;;;;;;13.25;8.30;;;10.20;99.90;;;;;;5023844;28;20017;-76
2022/01/01 01:15:30;;;;;;;9.98;7.93;;;10.30;99.90;;;;;;5020719;28;20080;-75
2022/01/01 01:17:57;;;;;;;13.70;8.63;;;10.30;99.90;;;;;;5011257;28;20026;-75
2022/01/01 01:20:23;;;;;;;13.23;8.90;;;10.30;99.90;;;;;;5009625;28;20484;-75
2022/01/01 01:22:48;;;;;;;13.40;9.35;;;10.20;99.90;;;;;;5029751;28;20030;-76
2022/01/01 01:25:14;;;;;;;13.10;9.45;;;10.30;99.90;;;;;;5009449;28;20021;-75
2022/01/01 01:27:40;;;;;;;11.93;8.55;;;10.30;99.90;;;;;;5032314;28;20033;-75
2022/01/01 01:30:09;;;;;;;10.55;8.60;;;10.30;99.90;;;;;;5028389;28;20095;-75
2022/01/01 01:32:35;;;;;;;14.63;9.10;;;10.30;99.90;;;;;;5013854;28;20430;-75
2022/01/01 01:35:02;;;;;;;12.10;9.20;;;10.30;99.90;;;;;;5029253;28;20025;-76
2022/01/01 01:37:28;;;;;;;15.68;9.27;;;10.20;99.90;;;;;;5032013;28;20048;-76
2022/01/01 01:39:57;;;;;;;13.70;9.07;;;10.20;99.90;;;;;;5008378;28;20022;-76
2022/01/01 01:42:25;;;;;;;11.48;8.75;;;10.20;99.90;;;;;;5032148;28;20093;-76
2022/01/01 01:44:53;;;;;;;12.38;9.15;;;10.20;99.90;;;;;;5010456;28;20022;-75
2022/01/01 01:47:28;;;;;;;10.23;8.40;;;10.30;99.90;;;;;;5014259;28;20513;-76
2022/01/01 01:49:54;;;;;;;13.77;9.07;;;10.30;99.90;;;;;;5002064;28;20025;-76
2022/01/01 01:52:20;;;;;;;13.85;9.93;;;10.30;99.90;;;;;;5022592;28;20026;-76
2022/01/01 01:54:46;;;;;;;14.07;10.00;;;10.30;99.90;;;;;;5006732;28;20034;-76
2022/01/01 01:57:12;;;;;;;13.48;9.88;;;10.20;99.90;;;;;;5010975;28;20022;-75
2022/01/01 01:59:40;;;;;;;16.85;10.18;;;10.20;99.90;;;;;;5009404;28;20430;-76
2022/01/01 02:02:07;;;;;;;15.23;9.27;;;10.10;99.90;;;;;;5029991;28;20075;-76
2022/01/01 02:04:32;;;;;;;14.70;9.05;;;10.10;99.90;;;;;;5010166;28;20021;-75
2022/01/01 02:06:58;;;;;;;12.32;9.30;;;10.10;99.90;;;;;;5030872;28;20376;-75
2022/01/01 02:09:24;;;;;;;14.02;9.73;;;10.10;99.90;;;;;;5028830;28;20037;-75
2022/01/01 02:11:52;;;;;;;12.60;8.82;;;10.10;99.90;;;;;;5029418;28;20029;-75
2022/01/01 02:17:15;;;;;;;12.77;10.02;;;10.20;99.90;;;;;;4984168;28;20076;-75
2022/01/01 02:19:59;;;;;;;13.02;9.32;;;10.10;99.90;;;;;;5031383;28;20029;-76
2022/01/01 02:22:26;;;;;;;11.13;8.32;;;10.10;99.90;;;;;;5011926;28;20025;-77
2022/01/01 02:24:52;;;;;;;31.10;23.67;;;10.20;99.90;;;;;;5007262;28;20018;-76
2022/01/01 02:27:18;;;;;;;12.07;8.98;;;10.10;99.90;;;;;;5012617;28;20112;-77
2022/01/01 02:29:44;;;;;;;11.10;8.63;;;10.10;99.90;;;;;;5012439;28;20064;-75
2022/01/01 02:32:15;;;;;;;11.13;8.00;;;10.10;99.90;;;;;;5011655;28;20080;-76
2022/01/01 02:34:42;;;;;;;11.65;8.38;;;10.20;99.90;;;;;;5030458;28;20036;-75
2022/01/01 02:37:08;;;;;;;14.02;8.52;;;10.20;99.90;;;;;;5030214;28;20030;-75
2022/01/01 02:39:34;;;;;;;10.60;8.73;;;10.20;99.90;;;;;;5026774;28;20029;-75
2022/01/01 02:41:59;;;;;;;12.82;8.30;;;10.20;99.90;;;;;;5031390;28;20021;-76
2022/01/01 02:44:26;;;;;;;10.52;8.43;;;10.20;99.90;;;;;;5027842;28;20025;-75
2022/01/01 02:46:53;;;;;;;14.35;8.73;;;10.20;99.90;;;;;;5025727;28;20085;-74
2022/01/01 02:49:18;;;;;;;12.77;8.23;;;10.10;99.90;;;;;;5023697;28;20053;-74
2022/01/01 02:51:44;;;;;;;12.07;8.70;;;10.20;99.90;;;;;;5018153;28;20049;-74
2022/01/01 02:54:09;;;;;;;10.57;8.57;;;10.20;99.90;;;;;;5019007;28;20119;-73
2022/01/01 02:56:35;;;;;;;12.27;8.95;;;10.20;99.90;;;;;;5017071;28;20039;-74
2022/01/01 02:59:01;;;;;;;12.40;8.48;;;10.20;99.90;;;;;;5019213;28;20026;-75
2022/01/01 03:01:26;;;;;;;13.48;8.95;;;10.30;99.90;;;;;;5024868;28;20404;-75
2022/01/01 03:03:52;;;;;;;13.48;8.98;;;10.20;99.90;;;;;;5023186;28;20032;-75
2022/01/01 03:06:20;;;;;;;13.05;9.50;;;10.20;99.90;;;;;;5017695;28;20045;-75
2022/01/01 03:08:55;;;;;;;10.93;8.80;;;10.20;99.90;;;;;;5019208;28;20025;-74
2022/01/01 03:11:21;;;;;;;10.37;8.77;;;10.10;99.90;;;;;;5009439;28;20028;-74
2022/01/01 03:13:47;;;;;;;11.48;8.73;;;10.20;99.90;;;;;;5003962;28;20257;-75
2022/01/01 03:16:12;;;;;;;11.02;9.50;;;10.20;99.90;;;;;;5010164;28;20048;-74
2022/01/01 03:18:39;;;;;;;11.77;9.23;;;10.10;99.90;;;;;;5028226;28;20033;-75
2022/01/01 03:21:05;;;;;;;11.13;8.82;;;10.10;99.90;;;;;;5021694;28;20499;-74
2022/01/01 03:23:31;;;;;;;13.90;10.05;;;10.10;99.90;;;;;;5034780;28;20026;-75
2022/01/01 03:25:56;;;;;;;13.63;9.80;;;10.00;99.90;;;;;;5028001;28;20422;-75
2022/01/01 03:28:22;;;;;;;12.43;9.80;;;10.00;99.90;;;;;;5027806;28;20487;-75
2022/01/01 03:30:48;;;;;;;12.40;9.57;;;10.00;99.90;;;;;;5021163;28;20029;-75
2022/01/01 03:33:13;;;;;;;12.88;10.02;;;10.00;99.90;;;;;;5034641;28;20130;-74
2022/01/01 03:35:39;;;;;;;13.20;9.98;;;9.90;99.90;;;;;;5020966;28;20038;-74
2022/01/01 03:38:04;;;;;;;12.65;9.20;;;10.00;99.90;;;;;;5021924;28;20038;-75
2022/01/01 03:40:30;;;;;;;12.40;10.10;;;9.90;99.90;;;;;;5015988;28;20027;-75
2022/01/01 03:42:55;;;;;;;13.27;10.13;;;9.90;99.90;;;;;;5016663;28;20113;-75
2022/01/01 03:45:21;;;;;;;13.00;9.98;;;9.90;99.90;;;;;;5020671;28;20025;-74
2022/01/01 03:47:46;;;;;;;14.07;10.57;;;9.80;99.90;;;;;;5004665;28;20062;-74
2022/01/01 03:50:13;;;;;;;15.60;9.90;;;9.80;99.90;;;;;;5010312;28;20045;-74
2022/01/01 03:52:43;;;;;;;12.30;9.80;;;9.90;99.90;;;;;;5008915;28;20395;-74
2022/01/01 03:55:12;;;;;;;11.73;10.02;;;9.90;99.90;;;;;;5034041;28;20021;-74
2022/01/01 03:57:38;;;;;;;11.52;9.23;;;9.80;99.90;;;;;;5033993;28;20033;-75
2022/01/01 04:00:11;;;;;;;13.05;9.77;;;9.80;99.90;;;;;;5033868;28;20103;-74
2022/01/01 04:02:37;;;;;;;11.15;9.13;;;9.80;99.90;;;;;;5016119;28;20021;-73
2022/01/01 04:05:03;;;;;;;13.50;9.52;;;9.80;99.90;;;;;;5033698;28;20032;-73
2022/01/01 04:07:32;;;;;;;14.10;9.98;;;9.80;99.90;;;;;;5020547;28;20091;-73
2022/01/01 04:09:58;;;;;;;13.02;10.00;;;9.80;99.90;;;;;;5033894;28;20021;-73
2022/01/01 04:12:25;;;;;;;13.38;10.00;;;9.70;99.90;;;;;;5020478;28;20058;-73
2022/01/01 04:14:50;;;;;;;12.32;9.98;;;9.80;99.90;;;;;;5033489;28;20033;-73
2022/01/01 04:17:16;;;;;;;12.85;10.27;;;9.80;99.90;;;;;;5020323;28;20095;-74
2022/01/01 04:19:42;;;;;;;13.13;9.90;;;9.90;99.90;;;;;;5024816;28;20370;-73
2022/01/01 04:22:09;;;;;;;10.38;9.27;;;9.90;99.90;;;;;;5028951;28;20037;-73
2022/01/01 04:24:35;;;;;;;13.60;9.75;;;9.90;99.90;;;;;;5015648;28;20030;-73
2022/01/01 04:27:02;;;;;;;13.40;9.57;;;9.80;99.90;;;;;;5019791;28;20037;-73
2022/01/01 04:29:27;;;;;;;13.65;9.45;;;9.80;99.90;;;;;;5025069;28;20034;-73
2022/01/01 04:31:55;;;;;;;11.60;9.90;;;9.80;99.90;;;;;;5009197;28;20026;-74
2022/01/01 04:34:21;;;;;;;12.32;9.73;;;9.80;99.90;;;;;;5021813;28;20104;-74
2022/01/01 04:36:52;;;;;;;13.23;10.48;;;9.80;99.90;;;;;;5019999;28;20540;-74
2022/01/01 04:39:17;;;;;;;14.27;9.73;;;9.80;99.90;;;;;;5024252;28;20424;-75
2022/01/01 04:41:43;;;;;;;11.52;9.35;;;9.80;99.90;;;;;;5009175;28;20022;-74
2022/01/01 04:44:08;;;;;;;12.63;10.23;;;9.80;99.90;;;;;;5022028;28;20087;-74
2022/01/01 04:46:34;;;;;;;11.93;9.13;;;9.80;99.90;;;;;;5019787;28;20026;-74
2022/01/01 04:49:00;;;;;;;12.52;9.80;;;9.80;99.90;;;;;;5024540;28;20030;-75
2022/01/01 04:51:26;;;;;;;13.88;10.23;;;9.80;99.90;;;;;;5026676;28;20022;-74
2022/01/01 04:53:58;;;;;;;12.27;9.60;;;9.70;99.90;;;;;;5003873;28;20112;-75
2022/01/01 04:56:24;;;;;;;11.82;9.32;;;9.80;99.90;;;;;;4999241;28;20083;-74
2022/01/01 04:58:49;;;;;;;15.55;9.75;;;9.70;99.90;;;;;;5011770;28;20030;-75
2022/01/01 05:01:15;;;;;;;13.88;9.70;;;9.70;99.90;;;;;;5017034;28;20029;-74
2022/01/01 05:03:40;;;;;;;12.13;9.13;;;9.70;99.90;;;;;;5004797;28;20026;-74
2022/01/01 05:06:06;;;;;;;10.80;9.68;;;9.70;99.90;;;;;;5025864;28;20076;-73
2022/01/01 05:08:31;;;;;;;13.25;9.30;;;9.80;99.90;;;;;;5005825;28;20029;-74
2022/01/01 05:10:57;;;;;;;11.70;9.30;;;9.80;99.90;;;;;;5028883;28;20398;-74
2022/01/01 05:13:22;;;;;;;12.55;9.68;;;9.80;99.90;;;;;;5023119;28;20086;-74
2022/01/01 05:15:50;;;;;;;10.77;8.95;;;9.80;99.90;;;;;;5011404;28;20026;-75
2022/01/01 05:18:16;;;;;;;13.27;9.65;;;9.80;99.90;;;;;;5022856;28;20108;-73
2022/01/01 05:20:41;;;;;;;12.73;9.30;;;9.70;99.90;;;;;;5001549;28;20108;-73
2022/01/01 05:23:07;;;;;;;13.95;9.32;;;9.70;99.90;;;;;;5005456;28;20021;-73
2022/01/01 05:25:32;;;;;;;13.63;9.48;;;9.80;99.90;;;;;;5028725;28;20037;-73
2022/01/01 05:27:58;;;;;;;13.88;9.65;;;9.80;99.90;;;;;;5014691;28;20021;-74
2022/01/01 05:30:24;;;;;;;10.05;8.95;;;9.80;99.90;;;;;;5029405;28;20115;-75
2022/01/01 05:32:49;;;;;;;10.85;9.00;;;9.80;99.90;;;;;;5021609;28;20025;-75
2022/01/01 05:35:15;;;;;;;11.73;9.45;;;9.80;99.90;;;;;;5001214;28;20025;-74
2022/01/01 05:37:40;;;;;;;12.00;9.60;;;9.70;99.90;;;;;;5022562;28;20040;-74
2022/01/01 05:40:06;;;;;;;12.35;9.75;;;9.70;99.90;;;;;;5028494;28;20025;-74
2022/01/01 05:42:32;;;;;;;10.38;8.75;;;9.70;99.90;;;;;;5032219;28;20029;-76
2022/01/01 05:44:57;;;;;;;12.02;9.30;;;9.70;99.90;;;;;;5018693;28;20025;-76
2022/01/01 05:47:23;;;;;;;11.55;8.20;;;9.70;99.90;;;;;;5022671;28;20057;-74
2022/01/01 05:49:49;;;;;;;11.25;8.95;;;9.70;99.90;;;;;;5028399;28;20483;-73
2022/01/01 05:52:14;;;;;;;10.38;9.07;;;9.60;99.90;;;;;;5032053;28;20033;-73
2022/01/01 05:54:40;;;;;;;11.07;8.20;;;9.60;99.90;;;;;;5015706;28;20109;-74
2022/01/01 05:57:06;;;;;;;11.43;8.80;;;9.70;99.90;;;;;;5021896;28;20025;-74
2022/01/01 05:59:31;;;;;;;14.00;9.40;;;9.70;99.90;;;;;;5028819;28;20105;-74
2022/01/01 06:01:57;;;;;;;10.80;9.00;;;9.60;99.90;;;;;;5021839;28;20048;-74
2022/01/01 06:04:23;;;;;;;12.80;8.35;;;9.70;99.90;;;;;;5018319;28;20083;-74
2022/01/01 06:06:48;;;;;;;14.65;8.85;;;9.60;99.90;;;;;;5021923;28;20117;-74
2022/01/01 06:09:14;;;;;;;9.15;7.88;;;9.70;99.90;;;;;;5000682;28;20525;-74
2022/01/01 06:11:39;;;;;;;11.45;8.10;;;9.70;99.90;;;;;;5022638;28;20575;-75
2022/01/01 06:14:05;;;;;;;11.75;8.05;;;9.70;99.90;;;;;;5025061;28;20133;-73
2022/01/01 06:16:30;;;;;;;13.82;7.82;;;9.70;99.90;;;;;;5021213;28;20048;-75
2022/01/01 06:18:56;;;;;;;14.85;8.82;;;9.70;99.90;;;;;;5018379;28;20419;-74
2022/01/01 06:21:22;;;;;;;11.52;9.05;;;9.70;99.90;;;;;;5004678;28;20111;-76
2022/01/01 06:23:47;;;;;;;11.63;8.65;;;9.70;99.90;;;;;;5027459;28;20054;-74
2022/01/01 06:26:15;;;;;;;11.32;8.10;;;9.60;99.90;;;;;;5022048;28;20053;-75
2022/01/01 06:28:41;;;;;;;11.55;8.45;;;9.70;99.90;;;;;;5007442;28;20033;-75
2022/01/01 06:31:06;;;;;;;11.40;8.75;;;9.60;99.90;;;;;;5003557;28;20415;-75
2022/01/01 06:33:32;;;;;;;10.43;8.75;;;9.70;99.90;;;;;;5028968;28;20052;-75
2022/01/01 06:35:57;;;;;;;17.17;8.75;;;9.70;99.90;;;;;;5020755;28;20439;-75
2022/01/01 06:38:23;;;;;;;11.07;8.15;;;9.70;99.90;;;;;;5018001;28;20061;-76
2022/01/01 06:40:49;;;;;;;10.23;8.43;;;9.70;99.90;;;;;;5013705;28;20399;-73
2022/01/01 06:43:16;;;;;;;12.63;8.88;;;9.60;99.90;;;;;;5018954;28;20458;-77
2022/01/01 06:45:42;;;;;;;11.60;8.60;;;9.60;99.90;;;;;;5008248;28;20030;-76
2022/01/01 06:48:07;;;;;;;11.73;8.77;;;9.60;99.90;;;;;;5028884;28;20112;-76
2022/01/01 06:50:35;;;;;;;13.15;10.40;;;9.50;99.90;;;;;;5023223;28;20101;-76
2022/01/01 06:53:00;;;;;;;12.68;9.20;;;9.50;99.90;;;;;;5022145;28;20026;-75
2022/01/01 06:55:26;;;;;;;11.80;9.20;;;9.50;99.90;;;;;;5022062;28;20018;-76
2022/01/01 06:57:51;;;;;;;11.88;9.43;;;9.60;99.90;;;;;;5000454;28;20026;-75
2022/01/01 07:00:17;;;;;;;11.02;8.98;;;9.50;99.90;;;;;;5035231;28;20068;-76
2022/01/01 07:02:44;;;;;;;11.80;8.80;;;9.50;99.90;;;;;;5021776;28;20037;-76
2022/01/01 07:05:12;;;;;;;10.75;9.23;;;9.50;99.90;;;;;;5007855;28;20558;-75
2022/01/01 07:07:37;;;;;;;12.63;9.70;;;9.50;99.90;;;;;;5028591;28;20390;-76
2022/01/01 07:10:05;;;;;;;12.95;9.27;;;9.50;99.90;;;;;;5006624;28;20117;-76
2022/01/01 07:12:31;;;;;;;11.73;9.13;;;9.40;99.90;;;;;;5003969;28;20395;-76
2022/01/01 07:14:56;;;;;;;15.02;10.07;;;9.40;99.90;;;;;;5025457;28;20026;-75
2022/01/01 07:17:22;;;;;;;11.57;10.05;;;9.30;99.90;;;;;;5031440;28;20029;-76
2022/01/01 07:19:47;;;;;;;18.20;12.70;;;9.30;99.90;;;;;;5004822;28;20026;-75
2022/01/01 07:22:13;;;;;;;21.50;13.18;;;9.30;99.90;;;;;;5030461;28;20415;-75
2022/01/01 07:24:39;;;;;;;16.02;10.32;;;9.30;99.90;;;;;;5008712;28;20036;-76
2022/01/01 07:27:05;;;;;;;13.77;10.18;;;9.30;99.90;;;;;;5021515;28;20147;-76
2022/01/01 07:29:31;;;;;;;15.02;9.77;;;9.30;99.90;;;;;;5028116;28;20040;-76
2022/01/01 07:31:56;;;;;;;13.23;9.95;;;9.30;99.90;;;;;;5021491;28;20491;-76
2022/01/01 07:34:22;;;;;;;14.80;10.68;;;9.30;99.90;;;;;;5019044;28;20041;-76
2022/01/01 07:36:48;;;;;;;13.38;10.27;;;9.30;99.90;;;;;;5017607;28;20037;-76
2022/01/01 07:39:14;;;;;;;11.95;10.18;;;9.30;99.90;;;;;;5024862;28;20539;-76
2022/01/01 07:41:40;;;;;;;14.35;10.43;;;9.40;99.90;;;;;;5027773;28;20160;-77
2022/01/01 07:44:06;;;;;;;12.80;9.48;;;9.30;99.90;;;;;;5023843;28;20053;-76
2022/01/01 07:46:32;;;;;;;13.63;10.95;;;9.40;99.90;;;;;;5020924;28;20029;-76
2022/01/01 07:48:58;;;;;;;14.68;10.55;;;9.50;99.90;;;;;;5025110;28;20037;-76
2022/01/01 07:51:23;;;;;;;14.60;11.45;;;9.40;99.90;;;;;;5012761;28;20439;-76
2022/01/01 07:53:50;;;;;;;15.48;11.30;;;9.40;99.90;;;;;;5025361;28;20032;-76
2022/01/01 07:56:16;;;;;;;17.83;12.80;;;9.40;99.90;;;;;;5003319;28;20052;-75
2022/01/01 07:58:41;;;;;;;18.02;13.75;;;9.40;99.90;;;;;;5024571;28;20057;-75
2022/01/01 08:01:07;;;;;;;18.05;12.77;;;9.40;99.90;;;;;;5009903;28;20020;-75
2022/01/01 08:03:33;;;;;;;16.98;12.38;;;9.50;99.90;;;;;;5023729;28;20026;-76
2022/01/01 08:05:58;;;;;;;15.02;11.45;;;9.40;99.90;;;;;;5020452;28;20104;-76
2022/01/01 08:08:24;;;;;;;17.27;12.77;;;9.40;99.90;;;;;;5024686;28;20503;-74
2022/01/01 08:10:49;;;;;;;24.98;17.33;;;9.40;99.90;;;;;;5027473;28;20041;-76
2022/01/01 08:13:23;;;;;;;30.58;22.55;;;9.40;99.90;;;;;;5023704;28;20025;-76
2022/01/01 08:15:49;;;;;;;24.05;16.70;;;9.40;99.90;;;;;;4999095;28;20026;-75
2022/01/01 08:18:15;;;;;;;21.55;15.43;;;9.50;99.90;;;;;;4995509;28;20030;-76
2022/01/01 08:20:41;;;;;;;25.00;17.20;;;9.50;99.90;;;;;;5009468;28;20639;-76
2022/01/01 08:23:07;;;;;;;120.15;73.72;;;9.50;99.90;;;;;;5024031;28;20541;-76
2022/01/01 08:25:33;;;;;;;61.03;38.63;;;9.50;99.90;;;;;;5016094;28;20018;-75
2022/01/01 08:27:58;;;;;;;89.78;63.03;;;9.50;99.90;;;;;;5001237;28;20515;-75
2022/01/01 08:30:24;;;;;;;38.80;29.52;;;9.50;99.90;;;;;;5028204;28;20029;-76
2022/01/01 08:32:49;;;;;;;20.55;16.58;;;9.50;99.90;;;;;;5006295;28;20507;-76
2022/01/01 08:35:15;;;;;;;21.23;16.23;;;9.50;99.90;;;;;;5019852;28;20036;-75
2022/01/01 08:37:41;;;;;;;114.80;97.82;;;9.60;99.90;;;;;;5033262;28;20029;-75
2022/01/01 08:40:07;;;;;;;41.00;37.15;;;9.60;99.90;;;;;;5020087;28;20036;-75
2022/01/01 08:42:33;;;;;;;43.05;37.42;;;9.60;99.90;;;;;;5009143;28;20053;-76
2022/01/01 08:44:59;;;;;;;47.35;39.83;;;9.70;99.90;;;;;;5030079;28;20049;-75
2022/01/01 08:47:26;;;;;;;39.28;28.33;;;9.60;99.90;;;;;;5005163;28;20036;-76
2022/01/01 08:49:56;;;;;;;98.78;68.63;;;9.60;99.90;;;;;;5018437;28;20025;-75
2022/01/01 08:52:25;;;;;;;51.97;38.50;;;9.60;99.90;;;;;;5033436;28;20030;-76
2022/01/01 08:54:56;;;;;;;37.95;29.17;;;9.60;99.90;;;;;;5011207;28;20105;-76
2022/01/01 08:57:22;;;;;;;33.97;25.42;;;9.60;99.90;;;;;;5017326;28;20021;-76
2022/01/01 08:59:48;;;;;;;21.98;16.85;;;9.70;99.90;;;;;;5027528;28;20049;-76
2022/01/01 09:02:13;;;;;;;19.02;13.30;;;9.70;99.90;;;;;;5007533;28;20052;-76
2022/01/01 09:04:39;;;;;;;19.33;13.73;;;9.70;99.90;;;;;;5001751;28;20026;-76
2022/01/01 09:07:05;;;;;;;17.80;14.25;;;9.80;99.90;;;;;;5002123;28;20488;-76
2022/01/01 09:09:30;;;;;;;15.75;11.73;;;9.80;99.90;;;;;;5008649;28;20072;-75
2022/01/01 09:11:56;;;;;;;13.98;11.43;;;9.80;99.90;;;;;;5013441;28;20030;-75
2022/01/01 09:14:22;;;;;;;15.32;11.57;;;9.80;99.90;;;;;;5014777;28;20033;-76
2022/01/01 09:16:48;;;;;;;14.02;12.10;;;9.80;99.90;;;;;;5014675;28;20021;-75
2022/01/01 09:19:13;;;;;;;15.82;12.10;;;9.80;99.90;;;;;;5019164;28;20033;-75
2022/01/01 09:21:39;;;;;;;15.00;11.55;;;9.90;99.90;;;;;;5021088;28;20026;-75
2022/01/01 09:24:05;;;;;;;16.40;11.75;;;9.90;99.90;;;;;;5017414;28;20021;-76
2022/01/01 09:26:30;;;;;;;15.48;11.98;;;9.80;99.90;;;;;;5020776;28;20032;-76
2022/01/01 09:28:56;;;;;;;17.50;11.48;;;9.80;99.90;;;;;;5025887;28;20026;-76
2022/01/01 09:31:22;;;;;;;13.60;11.30;;;9.90;99.90;;;;;;5024403;28;20497;-76
2022/01/01 09:33:47;;;;;;;16.35;11.20;;;9.80;99.90;;;;;;5001234;28;20455;-75
2022/01/01 09:36:17;;;;;;;14.88;11.73;;;9.90;99.90;;;;;;5032168;28;20025;-76
2022/01/01 09:38:43;;;;;;;16.35;11.50;;;9.90;99.90;;;;;;5026841;28;20564;-77
2022/01/01 09:41:10;;;;;;;15.68;10.88;;;10.00;99.90;;;;;;5006906;28;20037;-75
2022/01/01 09:43:35;;;;;;;14.02;10.63;;;10.00;99.90;;;;;;5018927;28;20029;-72
2022/01/01 09:46:02;;;;;;;16.52;11.45;;;10.00;99.90;;;;;;5030953;28;20022;-75
2022/01/01 09:48:29;;;;;;;14.80;11.05;;;10.00;99.90;;;;;;4999915;28;20116;-75
2022/01/01 09:50:57;;;;;;;15.27;11.35;;;10.00;99.90;;;;;;5014136;28;20026;-75
2022/01/01 09:53:26;;;;;;;15.27;11.35;;;10.00;99.90;;;;;;5001069;28;20033;-76
2022/01/01 09:55:56;;;;;;;16.30;11.10;;;10.00;99.90;;;;;;5015237;28;20029;-76
2022/01/01 09:58:29;;;;;;;14.93;10.77;;;10.10;99.90;;;;;;5007524;28;20105;-76
2022/01/01 10:00:55;;;;;;;17.90;11.52;;;10.00;99.90;;;;;;5025343;28;20427;-76
2022/01/01 10:03:38;;;;;;;12.95;10.68;;;10.10;99.90;;;;;;5019824;28;20119;-76
2022/01/01 10:06:14;;;;;;;13.20;11.25;;;10.10;99.90;;;;;;5017801;28;20653;-76
2022/01/01 10:08:41;;;;;;;13.60;10.38;;;10.10;99.90;;;;;;5020225;28;20030;-75
2022/01/01 10:11:08;;;;;;;15.85;11.48;;;10.10;99.90;;;;;;5030176;28;20041;-76
2022/01/01 10:13:39;;;;;;;14.75;10.93;;;10.10;99.90;;;;;;5031645;28;20499;-75
2022/01/01 10:16:06;;;;;;;16.48;10.32;;;10.10;99.90;;;;;;5000327;28;20040;-76
2022/01/01 10:18:34;;;;;;;18.20;11.60;;;10.20;99.90;;;;;;5018664;28;20049;-76
2022/01/01 10:21:15;;;;;;;17.35;11.48;;;10.20;99.90;;;;;;5013807;28;20021;-75
2022/01/01 10:23:43;;;;;;;14.95;11.10;;;10.20;99.90;;;;;;5018181;28;20029;-75
2022/01/01 10:29:12;;;;;;;14.43;10.73;;;10.20;99.90;;;;;;5025042;28;20041;-76
2022/01/01 10:31:39;;;;;;;13.40;9.98;;;10.30;99.90;;;;;;5025167;28;20068;-76
2022/01/01 10:34:14;;;;;;;12.85;10.60;;;10.40;99.90;;;;;;5024439;28;20033;-75
2022/01/01 10:36:43;;;;;;;16.95;10.82;;;10.50;99.90;;;;;;5026159;28;20026;-75
2022/01/01 10:39:11;;;;;;;14.45;10.60;;;10.50;99.90;;;;;;5023233;28;20083;-75
2022/01/01 10:41:50;;;;;;;13.25;10.02;;;10.50;99.90;;;;;;5007269;28;20423;-76
2022/01/01 10:44:20;;;;;;;14.88;9.73;;;10.50;99.90;;;;;;5014048;28;20056;-76
2022/01/01 10:46:46;;;;;;;11.13;9.32;;;10.50;99.90;;;;;;5022851;28;20030;-76
2022/01/01 10:49:34;;;;;;;12.90;9.93;;;10.60;99.90;;;;;;5021043;28;20377;-76
2022/01/01 10:52:29;;;;;;;12.68;10.40;;;10.60;99.90;;;;;;5005162;28;20112;-76
2022/01/01 10:54:57;;;;;;;14.02;9.90;;;10.60;99.90;;;;;;5006543;28;20033;-75
2022/01/01 10:57:28;;;;;;;12.52;8.77;;;10.70;99.90;;;;;;5014459;28;20171;-75
2022/01/01 11:00:17;;;;;;;15.05;9.30;;;10.70;99.90;;;;;;5017243;28;20030;-75
2022/01/01 11:02:47;;;;;;;11.02;8.65;;;10.70;99.90;;;;;;5018174;28;20025;-75
2022/01/01 11:05:12;;;;;;;14.25;10.13;;;10.70;99.90;;;;;;5030945;28;20025;-75
2022/01/01 11:07:49;;;;;;;11.95;9.63;;;10.70;99.90;;;;;;5017754;28;20036;-75
2022/01/01 11:10:15;;;;;;;11.93;9.15;;;10.70;99.90;;;;;;5002700;28;20586;-75
2022/01/01 11:12:42;;;;;;;15.15;9.65;;;10.70;99.90;;;;;;5024779;28;20022;-75
2022/01/01 11:15:08;;;;;;;22.17;16.33;;;10.70;99.90;;;;;;5022273;28;20104;-75
2022/01/01 11:17:36;;;;;;;15.23;12.80;;;10.60;99.90;;;;;;5017272;28;20420;-75
2022/01/01 11:20:03;;;;;;;15.25;10.95;;;10.60;99.90;;;;;;5022667;28;20030;-75
2022/01/01 11:22:29;;;;;;;12.32;9.98;;;10.70;99.90;;;;;;5017576;28;20101;-75
2022/01/01 11:24:55;;;;;;;16.38;11.80;;;10.80;99.90;;;;;;5014820;28;20030;-73
2022/01/01 11:27:23;;;;;;;14.63;11.60;;;10.90;99.90;;;;;;5028861;28;20018;-74
2022/01/01 11:29:52;;;;;;;16.58;11.55;;;10.80;99.90;;;;;;5030913;28;20032;-74
2022/01/01 11:32:41;;;;;;;11.35;10.10;;;10.90;99.90;;;;;;5011960;28;20381;-74
2022/01/01 11:35:15;;;;;;;13.15;10.60;;;10.90;99.90;;;;;;5029358;28;20109;-73
2022/01/01 11:38:03;;;;;;;14.68;10.95;;;10.90;99.90;;;;;;5026226;28;20086;-74
2022/01/01 11:40:39;;;;;;;14.93;10.20;;;11.00;99.90;;;;;;5023090;28;20028;-74
2022/01/01 11:43:04;;;;;;;12.23;8.90;;;11.10;99.90;;;;;;5004027;28;20035;-78
2022/01/01 11:45:41;;;;;;;12.15;9.43;;;11.10;99.90;;;;;;5027359;28;20034;-74
2022/01/01 11:48:31;;;;;;;16.92;10.77;;;11.10;99.90;;;;;;5029083;28;20032;-74
2022/01/01 11:51:17;;;;;;;13.43;10.13;;;11.10;99.90;;;;;;5034059;28;20535;-74
2022/01/01 11:54:14;;;;;;;16.25;11.05;;;11.10;99.90;;;;;;5026597;28;20108;-74
2022/01/01 11:56:49;;;;;;;16.63;10.43;;;11.10;99.90;;;;;;5006098;28;20026;-74
2022/01/01 11:59:18;;;;;;;17.75;10.38;;;11.10;99.90;;;;;;5034192;28;20032;-75
2022/01/01 12:01:44;;;;;;;14.25;9.52;;;11.20;99.90;;;;;;5026577;28;20022;-74
2022/01/01 12:04:22;;;;;;;12.75;8.80;;;11.20;99.90;;;;;;5027662;28;20159;-75
2022/01/01 12:06:57;;;;;;;11.82;8.63;;;11.20;99.90;;;;;;5022989;28;20034;-75
2022/01/01 12:09:23;;;;;;;8.73;6.73;;;11.20;99.90;;;;;;5020587;28;20021;-74
2022/01/01 12:11:54;;;;;;;11.75;8.25;;;11.20;99.90;;;;;;5024268;28;20265;-74
2022/01/01 12:14:23;;;;;;;11.90;8.77;;;11.30;99.90;;;;;;5027420;28;20392;-75
2022/01/01 12:16:50;;;;;;;12.52;8.00;;;11.30;99.90;;;;;;5007310;28;20037;-75
2022/01/01 12:19:20;;;;;;;11.15;8.40;;;11.30;99.90;;;;;;5029734;28;20041;-74
2022/01/01 12:21:48;;;;;;;11.05;8.13;;;11.30;99.90;;;;;;5026144;28;20052;-75
2022/01/01 12:24:18;;;;;;;9.90;6.70;;;11.40;99.90;;;;;;5002560;28;20424;-75
2022/01/01 12:26:53;;;;;;;9.77;6.93;;;11.30;99.90;;;;;;5021504;28;20053;-74
2022/01/01 12:29:24;;;;;;;11.02;6.70;;;11.20;99.90;;;;;;5026902;28;20084;-75
2022/01/01 12:31:57;;;;;;;10.38;6.95;;;11.30;99.90;;;;;;5027036;28;20108;-75
2022/01/01 12:34:24;;;;;;;13.52;9.10;;;11.30;99.90;;;;;;5007411;28;20041;-75
2022/01/01 12:36:55;;;;;;;11.05;8.45;;;11.40;99.90;;;;;;5026706;28;20029;-75
2022/01/01 12:39:21;;;;;;;11.93;8.60;;;11.60;99.90;;;;;;5004953;28;20057;-75
2022/01/01 12:41:47;;;;;;;10.25;8.48;;;11.40;99.90;;;;;;5029932;28;20021;-75
2022/01/01 12:44:23;;;;;;;10.27;6.63;;;11.40;99.90;;;;;;5022424;28;20084;-75
2022/01/01 12:46:55;;;;;;;12.93;8.13;;;11.40;99.90;;;;;;5019551;28;20387;-75